sensor_id;sensor_type;location;lat;lon;timestamp;pressure;altitude;pressure_sealevel;temperature
11424;BMP180;5768;51.476;7.210;2024-03-23T00:57:26;99624.00;;;11.70
11424;BMP180;5768;51.476;7.210;2024-03-23T01:02:30;99625.00;;;11.70
11424;BMP180;5768;51.476;7.210;2024-03-23T01:07:33;99608.00;;;11.70
11424;BMP180;5768;51.476;7.210;2024-03-23T01:12:35;99600.00;;;11.40
11424;BMP180;5768;51.476;7.210;2024-03-23T01:17:39;99604.00;;;11.10
11424;BMP180;5768;51.476;7.210;2024-03-23T01:22:41;99598.00;;;11.10
11424;BMP180;5768;51.476;7.210;2024-03-23T01:27:43;99600.00;;;11.00
11424;BMP180;5768;51.476;7.210;2024-03-23T01:32:47;99580.00;;;11.00
11424;BMP180;5768;51.476;7.210;2024-03-23T01:37:49;99561.00;;;11.00
11424;BMP180;5768;51.476;7.210;2024-03-23T01:42:58;99565.00;;;11.00
11424;BMP180;5768;51.476;7.210;2024-03-23T01:48:02;99583.00;;;11.00
11424;BMP180;5768;51.476;7.210;2024-03-23T01:53:05;99571.00;;;10.90
11424;BMP180;5768;51.476;7.210;2024-03-23T01:58:08;99573.00;;;10.80
11424;BMP180;5768;51.476;7.210;2024-03-23T02:03:24;99552.00;;;10.70
11424;BMP180;5768;51.476;7.210;2024-03-23T02:08:27;99556.00;;;10.60
11424;BMP180;5768;51.476;7.210;2024-03-23T02:13:30;99548.00;;;10.60
11424;BMP180;5768;51.476;7.210;2024-03-23T02:18:34;99544.00;;;10.70
11424;BMP180;5768;51.476;7.210;2024-03-23T02:23:37;99516.00;;;10.80
11424;BMP180;5768;51.476;7.210;2024-03-23T02:28:39;99525.00;;;10.90
11424;BMP180;5768;51.476;7.210;2024-03-23T02:33:41;99532.00;;;11.00
11424;BMP180;5768;51.476;7.210;2024-03-23T02:38:45;99541.00;;;11.00
11424;BMP180;5768;51.476;7.210;2024-03-23T02:43:49;99534.00;;;11.00
11424;BMP180;5768;51.476;7.210;2024-03-23T02:48:51;99520.00;;;10.90
11424;BMP180;5768;51.476;7.210;2024-03-23T02:53:55;99516.00;;;10.90
11424;BMP180;5768;51.476;7.210;2024-03-23T02:58:57;99528.00;;;10.90
11424;BMP180;5768;51.476;7.210;2024-03-23T03:04:00;99523.00;;;10.80
11424;BMP180;5768;51.476;7.210;2024-03-23T03:09:04;99542.00;;;10.80
11424;BMP180;5768;51.476;7.210;2024-03-23T03:14:07;99539.00;;;10.80
11424;BMP180;5768;51.476;7.210;2024-03-23T03:19:09;99525.00;;;10.60
11424;BMP180;5768;51.476;7.210;2024-03-23T03:24:12;99524.00;;;10.60
11424;BMP180;5768;51.476;7.210;2024-03-23T03:29:14;99537.00;;;10.50
11424;BMP180;5768;51.476;7.210;2024-03-23T03:34:17;99518.00;;;10.70
11424;BMP180;5768;51.476;7.210;2024-03-23T03:39:20;99505.00;;;10.80
11424;BMP180;5768;51.476;7.210;2024-03-23T03:44:23;99522.00;;;10.90
11424;BMP180;5768;51.476;7.210;2024-03-23T03:49:25;99511.00;;;10.80
11424;BMP180;5768;51.476;7.210;2024-03-23T03:54:30;99520.00;;;10.60
11424;BMP180;5768;51.476;7.210;2024-03-23T03:59:32;99504.00;;;10.50
11424;BMP180;5768;51.476;7.210;2024-03-23T04:04:34;99502.00;;;10.10
11424;BMP180;5768;51.476;7.210;2024-03-23T04:09:37;99505.00;;;10.40
11424;BMP180;5768;51.476;7.210;2024-03-23T04:14:39;99511.00;;;10.40
11424;BMP180;5768;51.476;7.210;2024-03-23T04:19:43;99509.00;;;10.40
11424;BMP180;5768;51.476;7.210;2024-03-23T04:24:47;99505.00;;;10.20
11424;BMP180;5768;51.476;7.210;2024-03-23T04:29:50;99506.00;;;10.10
11424;BMP180;5768;51.476;7.210;2024-03-23T04:34:52;99498.00;;;10.00
11424;BMP180;5768;51.476;7.210;2024-03-23T04:39:56;99487.00;;;9.90
11424;BMP180;5768;51.476;7.210;2024-03-23T04:44:58;99483.00;;;9.90
11424;BMP180;5768;51.476;7.210;2024-03-23T04:50:01;99486.00;;;9.80
11424;BMP180;5768;51.476;7.210;2024-03-23T04:55:06;99489.00;;;9.80
11424;BMP180;5768;51.476;7.210;2024-03-23T05:00:10;99492.00;;;9.80
11424;BMP180;5768;51.476;7.210;2024-03-23T05:05:17;99494.00;;;9.70
11424;BMP180;5768;51.476;7.210;2024-03-23T05:10:21;99498.00;;;9.70
11424;BMP180;5768;51.476;7.210;2024-03-23T05:15:23;99496.00;;;9.60
11424;BMP180;5768;51.476;7.210;2024-03-23T05:20:26;99489.00;;;9.50
11424;BMP180;5768;51.476;7.210;2024-03-23T05:25:30;99490.00;;;9.50
11424;BMP180;5768;51.476;7.210;2024-03-23T05:30:32;99497.00;;;9.50
11424;BMP180;5768;51.476;7.210;2024-03-23T05:35:34;99502.00;;;9.60
11424;BMP180;5768;51.476;7.210;2024-03-23T05:40:38;99512.00;;;9.60
11424;BMP180;5768;51.476;7.210;2024-03-23T05:45:41;99497.00;;;9.50
11424;BMP180;5768;51.476;7.210;2024-03-23T05:50:43;99501.00;;;9.50
11424;BMP180;5768;51.476;7.210;2024-03-23T05:55:47;99502.00;;;9.50
11424;BMP180;5768;51.476;7.210;2024-03-23T06:00:57;99502.00;;;9.60
11424;BMP180;5768;51.476;7.210;2024-03-23T06:05:59;99498.00;;;9.70
11424;BMP180;5768;51.476;7.210;2024-03-23T06:11:04;99511.00;;;9.80
11424;BMP180;5768;51.476;7.210;2024-03-23T06:16:07;99508.00;;;9.90
11424;BMP180;5768;51.476;7.210;2024-03-23T06:21:14;99523.00;;;10.00
11424;BMP180;5768;51.476;7.210;2024-03-23T06:26:17;99526.00;;;9.90
11424;BMP180;5768;51.476;7.210;2024-03-23T06:31:19;99524.00;;;9.80
11424;BMP180;5768;51.476;7.210;2024-03-23T06:36:22;99521.00;;;9.70
11424;BMP180;5768;51.476;7.210;2024-03-23T06:41:26;99517.00;;;9.70
11424;BMP180;5768;51.476;7.210;2024-03-23T06:46:28;99517.00;;;9.70
11424;BMP180;5768;51.476;7.210;2024-03-23T06:51:30;99522.00;;;9.70
11424;BMP180;5768;51.476;7.210;2024-03-23T06:56:34;99522.00;;;9.70
11424;BMP180;5768;51.476;7.210;2024-03-23T07:01:36;99532.00;;;9.60
11424;BMP180;5768;51.476;7.210;2024-03-23T07:06:43;99534.00;;;9.70
11424;BMP180;5768;51.476;7.210;2024-03-23T07:11:46;99534.00;;;9.80
11424;BMP180;5768;51.476;7.210;2024-03-23T07:16:49;99532.00;;;9.80
11424;BMP180;5768;51.476;7.210;2024-03-23T07:21:51;99531.00;;;9.70
11424;BMP180;5768;51.476;7.210;2024-03-23T07:26:55;99521.00;;;9.90
11424;BMP180;5768;51.476;7.210;2024-03-23T07:31:58;99539.00;;;10.00
11424;BMP180;5768;51.476;7.210;2024-03-23T07:37:01;99537.00;;;10.10
11424;BMP180;5768;51.476;7.210;2024-03-23T07:42:05;99530.00;;;10.20
11424;BMP180;5768;51.476;7.210;2024-03-23T07:47:07;99528.00;;;10.30
11424;BMP180;5768;51.476;7.210;2024-03-23T07:52:09;99532.00;;;10.50
11424;BMP180;5768;51.476;7.210;2024-03-23T07:57:13;99543.00;;;10.50
11424;BMP180;5768;51.476;7.210;2024-03-23T08:02:16;99540.00;;;10.70
11424;BMP180;5768;51.476;7.210;2024-03-23T08:07:18;99550.00;;;11.00
11424;BMP180;5768;51.476;7.210;2024-03-23T08:12:21;99550.00;;;11.40
11424;BMP180;5768;51.476;7.210;2024-03-23T08:17:24;99549.00;;;11.50
11424;BMP180;5768;51.476;7.210;2024-03-23T08:22:26;99546.00;;;11.60
11424;BMP180;5768;51.476;7.210;2024-03-23T08:27:29;99549.00;;;11.60
11424;BMP180;5768;51.476;7.210;2024-03-23T08:32:32;99548.00;;;11.70
11424;BMP180;5768;51.476;7.210;2024-03-23T08:37:34;99535.00;;;11.60
11424;BMP180;5768;51.476;7.210;2024-03-23T08:42:38;99546.00;;;11.80
11424;BMP180;5768;51.476;7.210;2024-03-23T08:47:41;99542.00;;;11.80
11424;BMP180;5768;51.476;7.210;2024-03-23T08:52:44;99537.00;;;11.90
11424;BMP180;5768;51.476;7.210;2024-03-23T08:57:47;99543.00;;;12.30
11424;BMP180;5768;51.476;7.210;2024-03-23T09:02:50;99545.00;;;12.40
11424;BMP180;5768;51.476;7.210;2024-03-23T09:07:52;99547.00;;;12.20
11424;BMP180;5768;51.476;7.210;2024-03-23T09:12:55;99536.00;;;11.90
11424;BMP180;5768;51.476;7.210;2024-03-23T09:17:59;99550.00;;;11.80
11424;BMP180;5768;51.476;7.210;2024-03-23T09:23:01;99567.00;;;11.60
11424;BMP180;5768;51.476;7.210;2024-03-23T09:28:06;99565.00;;;11.30
11424;BMP180;5768;51.476;7.210;2024-03-23T09:33:10;99561.00;;;11.10
11424;BMP180;5768;51.476;7.210;2024-03-23T09:38:12;99579.00;;;11.40
11424;BMP180;5768;51.476;7.210;2024-03-23T09:43:16;99560.00;;;11.40
11424;BMP180;5768;51.476;7.210;2024-03-23T09:48:18;99573.00;;;11.40
11424;BMP180;5768;51.476;7.210;2024-03-23T09:53:21;99546.00;;;11.90
11424;BMP180;5768;51.476;7.210;2024-03-23T09:58:25;99545.00;;;12.60
11424;BMP180;5768;51.476;7.210;2024-03-23T10:03:27;99547.00;;;12.80
11424;BMP180;5768;51.476;7.210;2024-03-23T10:08:30;99542.00;;;12.80
11424;BMP180;5768;51.476;7.210;2024-03-23T10:13:35;99547.00;;;12.90
11424;BMP180;5768;51.476;7.210;2024-03-23T10:18:38;99523.00;;;12.90
11424;BMP180;5768;51.476;7.210;2024-03-23T10:23:43;99518.00;;;12.70
11424;BMP180;5768;51.476;7.210;2024-03-23T10:28:54;99547.00;;;13.00
11424;BMP180;5768;51.476;7.210;2024-03-23T10:33:59;99524.00;;;13.40
11424;BMP180;5768;51.476;7.210;2024-03-23T10:39:02;99500.00;;;13.40
11424;BMP180;5768;51.476;7.210;2024-03-23T10:44:06;99502.00;;;13.40
11424;BMP180;5768;51.476;7.210;2024-03-23T10:49:09;99508.00;;;13.70
11424;BMP180;5768;51.476;7.210;2024-03-23T10:54:11;99513.00;;;13.50
11424;BMP180;5768;51.476;7.210;2024-03-23T10:59:17;99511.00;;;13.50
11424;BMP180;5768;51.476;7.210;2024-03-23T11:04:31;99566.00;;;12.90
11424;BMP180;5768;51.476;7.210;2024-03-23T11:09:40;99565.00;;;10.50
11424;BMP180;5768;51.476;7.210;2024-03-23T11:14:47;99577.00;;;9.40
11424;BMP180;5768;51.476;7.210;2024-03-23T11:19:55;99565.00;;;9.10
11424;BMP180;5768;51.476;7.210;2024-03-23T11:24:58;99565.00;;;9.10
11424;BMP180;5768;51.476;7.210;2024-03-23T11:30:16;99573.00;;;9.20
11424;BMP180;5768;51.476;7.210;2024-03-23T11:35:26;99557.00;;;9.20
11424;BMP180;5768;51.476;7.210;2024-03-23T11:40:29;99544.00;;;9.40
11424;BMP180;5768;51.476;7.210;2024-03-23T11:45:37;99549.00;;;9.80
11424;BMP180;5768;51.476;7.210;2024-03-23T11:50:42;99529.00;;;9.90
11424;BMP180;5768;51.476;7.210;2024-03-23T11:55:49;99525.00;;;10.30
11424;BMP180;5768;51.476;7.210;2024-03-23T12:00:57;99518.00;;;10.80
11424;BMP180;5768;51.476;7.210;2024-03-23T12:06:01;99525.00;;;11.30
11424;BMP180;5768;51.476;7.210;2024-03-23T12:11:08;99505.00;;;11.90
11424;BMP180;5768;51.476;7.210;2024-03-23T12:16:16;99510.00;;;12.50
11424;BMP180;5768;51.476;7.210;2024-03-23T12:21:18;99511.00;;;12.90
11424;BMP180;5768;51.476;7.210;2024-03-23T12:26:21;99507.00;;;12.60
11424;BMP180;5768;51.476;7.210;2024-03-23T12:31:25;99493.00;;;12.30
11424;BMP180;5768;51.476;7.210;2024-03-23T12:36:27;99502.00;;;12.20
11424;BMP180;5768;51.476;7.210;2024-03-23T12:41:29;99532.00;;;12.10
11424;BMP180;5768;51.476;7.210;2024-03-23T12:46:33;99514.00;;;12.30
11424;BMP180;5768;51.476;7.210;2024-03-23T12:51:35;99533.00;;;13.20
11424;BMP180;5768;51.476;7.210;2024-03-23T12:56:38;99534.00;;;13.70
11424;BMP180;5768;51.476;7.210;2024-03-23T13:01:42;99536.00;;;14.50
11424;BMP180;5768;51.476;7.210;2024-03-23T13:06:45;99521.00;;;15.00
11424;BMP180;5768;51.476;7.210;2024-03-23T13:11:47;99525.00;;;13.60
11424;BMP180;5768;51.476;7.210;2024-03-23T13:16:51;99550.00;;;12.90
11424;BMP180;5768;51.476;7.210;2024-03-23T13:21:53;99562.00;;;11.90
11424;BMP180;5768;51.476;7.210;2024-03-23T13:26:57;99528.00;;;10.10
11424;BMP180;5768;51.476;7.210;2024-03-23T13:32:01;99522.00;;;10.00
11424;BMP180;5768;51.476;7.210;2024-03-23T13:37:03;99512.00;;;9.90
11424;BMP180;5768;51.476;7.210;2024-03-23T13:42:08;99514.00;;;10.10
11424;BMP180;5768;51.476;7.210;2024-03-23T13:47:12;99521.00;;;9.90
11424;BMP180;5768;51.476;7.210;2024-03-23T13:52:14;99524.00;;;10.00
11424;BMP180;5768;51.476;7.210;2024-03-23T13:57:16;99507.00;;;13.30
11424;BMP180;5768;51.476;7.210;2024-03-23T14:02:23;99514.00;;;15.40
11424;BMP180;5768;51.476;7.210;2024-03-23T14:07:25;99523.00;;;14.90
11424;BMP180;5768;51.476;7.210;2024-03-23T14:12:27;99501.00;;;13.60
11424;BMP180;5768;51.476;7.210;2024-03-23T14:17:31;99501.00;;;14.10
11424;BMP180;5768;51.476;7.210;2024-03-23T14:22:33;99487.00;;;17.40
11424;BMP180;5768;51.476;7.210;2024-03-23T14:27:35;99507.00;;;18.80
11424;BMP180;5768;51.476;7.210;2024-03-23T14:32:39;99499.00;;;18.50
11424;BMP180;5768;51.476;7.210;2024-03-23T14:37:42;99482.00;;;18.70
11424;BMP180;5768;51.476;7.210;2024-03-23T14:42:44;99490.00;;;16.70
11424;BMP180;5768;51.476;7.210;2024-03-23T14:47:48;99504.00;;;17.60
11424;BMP180;5768;51.476;7.210;2024-03-23T14:52:50;99500.00;;;19.30
11424;BMP180;5768;51.476;7.210;2024-03-23T14:57:53;99490.00;;;19.30
11424;BMP180;5768;51.476;7.210;2024-03-23T15:02:56;99498.00;;;19.30
11424;BMP180;5768;51.476;7.210;2024-03-23T15:07:58;99471.00;;;16.60
11424;BMP180;5768;51.476;7.210;2024-03-23T15:13:00;99479.00;;;15.60
11424;BMP180;5768;51.476;7.210;2024-03-23T15:18:05;99462.00;;;14.90
11424;BMP180;5768;51.476;7.210;2024-03-23T15:23:08;99455.00;;;15.50
11424;BMP180;5768;51.476;7.210;2024-03-23T15:28:10;99451.00;;;14.80
11424;BMP180;5768;51.476;7.210;2024-03-23T15:33:13;99450.00;;;15.40
11424;BMP180;5768;51.476;7.210;2024-03-23T15:38:15;99455.00;;;19.20
11424;BMP180;5768;51.476;7.210;2024-03-23T15:43:19;99457.00;;;17.40
11424;BMP180;5768;51.476;7.210;2024-03-23T15:48:23;99450.00;;;17.80
11424;BMP180;5768;51.476;7.210;2024-03-23T15:53:27;99444.00;;;18.60
11424;BMP180;5768;51.476;7.210;2024-03-23T15:58:31;99449.00;;;16.20
11424;BMP180;5768;51.476;7.210;2024-03-23T16:03:37;99438.00;;;16.80
11424;BMP180;5768;51.476;7.210;2024-03-23T16:08:39;99440.00;;;17.00
11424;BMP180;5768;51.476;7.210;2024-03-23T16:13:42;99430.00;;;20.20
11424;BMP180;5768;51.476;7.210;2024-03-23T16:18:45;99435.00;;;21.30
11424;BMP180;5768;51.476;7.210;2024-03-23T16:23:48;99436.00;;;19.70
11424;BMP180;5768;51.476;7.210;2024-03-23T16:28:50;99434.00;;;17.40
11424;BMP180;5768;51.476;7.210;2024-03-23T16:33:54;99425.00;;;18.50
11424;BMP180;5768;51.476;7.210;2024-03-23T16:38:56;99430.00;;;20.80
11424;BMP180;5768;51.476;7.210;2024-03-23T16:43:58;99427.00;;;18.50
11424;BMP180;5768;51.476;7.210;2024-03-23T16:49:02;99424.00;;;17.80
11424;BMP180;5768;51.476;7.210;2024-03-23T16:54:04;99427.00;;;17.30
11424;BMP180;5768;51.476;7.210;2024-03-23T16:59:07;99419.00;;;15.50
11424;BMP180;5768;51.476;7.210;2024-03-23T17:04:11;99433.00;;;14.10
11424;BMP180;5768;51.476;7.210;2024-03-23T17:09:13;99424.00;;;13.10
11424;BMP180;5768;51.476;7.210;2024-03-23T17:14:17;99406.00;;;12.40
11424;BMP180;5768;51.476;7.210;2024-03-23T17:19:20;99423.00;;;12.00
11424;BMP180;5768;51.476;7.210;2024-03-23T17:24:23;99445.00;;;11.80
11424;BMP180;5768;51.476;7.210;2024-03-23T17:29:25;99470.00;;;11.40
11424;BMP180;5768;51.476;7.210;2024-03-23T17:34:29;99450.00;;;10.70
11424;BMP180;5768;51.476;7.210;2024-03-23T17:39:31;99435.00;;;10.30
11424;BMP180;5768;51.476;7.210;2024-03-23T17:44:33;99449.00;;;10.00
11424;BMP180;5768;51.476;7.210;2024-03-23T17:49:37;99430.00;;;9.90
11424;BMP180;5768;51.476;7.210;2024-03-23T17:54:39;99436.00;;;10.00
11424;BMP180;5768;51.476;7.210;2024-03-23T17:59:41;99439.00;;;9.90
11424;BMP180;5768;51.476;7.210;2024-03-23T18:04:45;99434.00;;;9.60
11424;BMP180;5768;51.476;7.210;2024-03-23T18:09:47;99424.00;;;9.30
11424;BMP180;5768;51.476;7.210;2024-03-23T18:14:49;99424.00;;;9.10
11424;BMP180;5768;51.476;7.210;2024-03-23T18:19:52;99434.00;;;8.90
11424;BMP180;5768;51.476;7.210;2024-03-23T18:24:55;99410.00;;;8.90
11424;BMP180;5768;51.476;7.210;2024-03-23T18:29:58;99424.00;;;8.80
11424;BMP180;5768;51.476;7.210;2024-03-23T18:35:02;99448.00;;;8.70
11424;BMP180;5768;51.476;7.210;2024-03-23T18:40:07;99443.00;;;8.60
11424;BMP180;5768;51.476;7.210;2024-03-23T18:45:10;99431.00;;;8.50
11424;BMP180;5768;51.476;7.210;2024-03-23T18:50:14;99424.00;;;8.50
11424;BMP180;5768;51.476;7.210;2024-03-23T18:55:17;99424.00;;;8.40
11424;BMP180;5768;51.476;7.210;2024-03-23T19:00:20;99417.00;;;8.40
11424;BMP180;5768;51.476;7.210;2024-03-23T19:05:24;99421.00;;;8.40
11424;BMP180;5768;51.476;7.210;2024-03-23T19:10:30;99416.00;;;8.40
11424;BMP180;5768;51.476;7.210;2024-03-23T19:15:34;99410.00;;;8.30
11424;BMP180;5768;51.476;7.210;2024-03-23T19:20:37;99409.00;;;8.30
11424;BMP180;5768;51.476;7.210;2024-03-23T19:25:40;99418.00;;;8.30
11424;BMP180;5768;51.476;7.210;2024-03-23T19:30:44;99417.00;;;8.30
11424;BMP180;5768;51.476;7.210;2024-03-23T19:35:54;99398.00;;;8.50
11424;BMP180;5768;51.476;7.210;2024-03-23T19:40:58;99391.00;;;8.80
11424;BMP180;5768;51.476;7.210;2024-03-23T19:46:05;99394.00;;;8.80
11424;BMP180;5768;51.476;7.210;2024-03-23T19:51:22;99403.00;;;8.90
11424;BMP180;5768;51.476;7.210;2024-03-23T19:56:28;99410.00;;;9.00
11424;BMP180;5768;51.476;7.210;2024-03-23T20:01:31;99418.00;;;9.10
11424;BMP180;5768;51.476;7.210;2024-03-23T20:06:38;99426.00;;;9.20
11424;BMP180;5768;51.476;7.210;2024-03-23T20:11:40;99410.00;;;8.80
11424;BMP180;5768;51.476;7.210;2024-03-23T20:16:43;99404.00;;;8.40
11424;BMP180;5768;51.476;7.210;2024-03-23T20:21:46;99376.00;;;8.30
11424;BMP180;5768;51.476;7.210;2024-03-23T20:26:49;99387.00;;;8.20
11424;BMP180;5768;51.476;7.210;2024-03-23T20:31:51;99376.00;;;8.30
11424;BMP180;5768;51.476;7.210;2024-03-23T20:36:55;99368.00;;;8.40
11424;BMP180;5768;51.476;7.210;2024-03-23T20:41:57;99370.00;;;8.50
11424;BMP180;5768;51.476;7.210;2024-03-23T20:47:00;99379.00;;;8.70
11424;BMP180;5768;51.476;7.210;2024-03-23T20:52:04;99421.00;;;8.60
11424;BMP180;5768;51.476;7.210;2024-03-23T20:57:09;99416.00;;;8.50
11424;BMP180;5768;51.476;7.210;2024-03-23T21:02:11;99360.00;;;8.30
11424;BMP180;5768;51.476;7.210;2024-03-23T21:07:26;99355.00;;;8.20
11424;BMP180;5768;51.476;7.210;2024-03-23T21:12:43;99354.00;;;8.00
11424;BMP180;5768;51.476;7.210;2024-03-23T21:17:55;99352.00;;;7.80
11424;BMP180;5768;51.476;7.210;2024-03-23T21:22:59;99328.00;;;7.80
11424;BMP180;5768;51.476;7.210;2024-03-23T21:28:03;99334.00;;;7.90
11424;BMP180;5768;51.476;7.210;2024-03-23T21:33:15;99329.00;;;7.90
11424;BMP180;5768;51.476;7.210;2024-03-23T21:38:23;99331.00;;;7.80
11424;BMP180;5768;51.476;7.210;2024-03-23T21:43:29;99317.00;;;7.80
11424;BMP180;5768;51.476;7.210;2024-03-23T21:48:35;99320.00;;;7.70
11424;BMP180;5768;51.476;7.210;2024-03-23T21:53:39;99295.00;;;7.60
11424;BMP180;5768;51.476;7.210;2024-03-23T21:58:45;99307.00;;;7.60
11424;BMP180;5768;51.476;7.210;2024-03-23T22:03:47;99295.00;;;7.50
11424;BMP180;5768;51.476;7.210;2024-03-23T22:08:54;99299.00;;;7.50
11424;BMP180;5768;51.476;7.210;2024-03-23T22:13:56;99289.00;;;7.50
11424;BMP180;5768;51.476;7.210;2024-03-23T22:19:00;99286.00;;;7.70
11424;BMP180;5768;51.476;7.210;2024-03-23T22:24:06;99289.00;;;8.00
11424;BMP180;5768;51.476;7.210;2024-03-23T22:29:09;99288.00;;;8.00
11424;BMP180;5768;51.476;7.210;2024-03-23T22:34:11;99276.00;;;8.00
11424;BMP180;5768;51.476;7.210;2024-03-23T22:39:24;99278.00;;;8.00
11424;BMP180;5768;51.476;7.210;2024-03-23T22:44:30;99259.00;;;8.00
11424;BMP180;5768;51.476;7.210;2024-03-23T22:49:35;99255.00;;;8.10
11424;BMP180;5768;51.476;7.210;2024-03-23T22:54:42;99249.00;;;8.20
11424;BMP180;5768;51.476;7.210;2024-03-23T22:59:58;99249.00;;;8.30
11424;BMP180;5768;51.476;7.210;2024-03-23T23:05:10;99257.00;;;8.00
11424;BMP180;5768;51.476;7.210;2024-03-23T23:10:14;99236.00;;;7.90
11424;BMP180;5768;51.476;7.210;2024-03-23T23:15:17;99239.00;;;7.80
11424;BMP180;5768;51.476;7.210;2024-03-23T23:20:20;99212.00;;;7.90
11424;BMP180;5768;51.476;7.210;2024-03-23T23:25:24;99213.00;;;8.00
11424;BMP180;5768;51.476;7.210;2024-03-23T23:30:33;99200.00;;;8.10
11424;BMP180;5768;51.476;7.210;2024-03-23T23:35:36;99209.00;;;8.00
11424;BMP180;5768;51.476;7.210;2024-03-23T23:40:40;99213.00;;;8.10
11424;BMP180;5768;51.476;7.210;2024-03-23T23:45:46;99209.00;;;8.00
11424;BMP180;5768;51.476;7.210;2024-03-23T23:50:50;99194.00;;;7.90
11424;BMP180;5768;51.476;7.210;2024-03-23T23:55:55;99212.00;;;8.00
